Saint Thomas, Canada
Current Conditions -  °F | °C
As of 8:00 PM on Friday 19 Dec 2014 (Local Time) from CYXU Reporting Station
Broken Clouds Broken Clouds  
Wind Chill: -8°   Ceiling: 1800
Heat Index: -4°   Visibility: 15mi
Dew Point: -6°   Wind: 6mph
Humidity: 86%   Direction: 330°NNW
Pressure: 30.28"   Gusts: NA
Location:  42.78°N, 81.18°W
Report Text: CYXU 200100Z 33005KT 15SM BKN018 M04/M06 A3028 RMK SC5 SLP268
Loading
Personal Weather Stations






























Interactive Weather Map New forecast layout! Learn more

10-Day Weather Forecast

Advertisements
Track Severe Weather on mobile